sensor_id;sensor_type;location;lat;lon;timestamp;pressure;altitude;pressure_sealevel;temperature;humidity
29315;BME280;16320;53.954;9.506;2023-09-19T00:02:58;100148.25;;;16.93;100.00
29315;BME280;16320;53.954;9.506;2023-09-19T00:06:06;100153.31;;;16.96;100.00
29315;BME280;16320;53.954;9.506;2023-09-19T00:09:14;100158.34;;;16.99;100.00
29315;BME280;16320;53.954;9.506;2023-09-19T00:12:18;100149.38;;;17.00;100.00
29315;BME280;16320;53.954;9.506;2023-09-19T00:15:23;100151.34;;;16.98;100.00
29315;BME280;16320;53.954;9.506;2023-09-19T00:18:28;100161.13;;;16.98;100.00
29315;BME280;16320;53.954;9.506;2023-09-19T00:21:34;100158.88;;;16.93;100.00
29315;BME280;16320;53.954;9.506;2023-09-19T00:24:42;100165.97;;;16.93;100.00
29315;BME280;16320;53.954;9.506;2023-09-19T00:27:47;100163.44;;;16.91;100.00
29315;BME280;16320;53.954;9.506;2023-09-19T00:30:54;100171.16;;;16.94;100.00
29315;BME280;16320;53.954;9.506;2023-09-19T00:33:59;100157.19;;;16.92;100.00
29315;BME280;16320;53.954;9.506;2023-09-19T00:37:11;100173.38;;;16.89;100.00
29315;BME280;16320;53.954;9.506;2023-09-19T00:40:15;100165.41;;;16.89;100.00
29315;BME280;16320;53.954;9.506;2023-09-19T00:43:21;100177.84;;;16.89;100.00
29315;BME280;16320;53.954;9.506;2023-09-19T00:46:29;100177.84;;;16.89;100.00
29315;BME280;16320;53.954;9.506;2023-09-19T00:49:34;100184.09;;;16.88;100.00
29315;BME280;16320;53.954;9.506;2023-09-19T00:52:38;100173.72;;;16.84;100.00
29315;BME280;16320;53.954;9.506;2023-09-19T00:55:45;100171.50;;;16.80;100.00
29315;BME280;16320;53.954;9.506;2023-09-19T00:58:49;100173.16;;;16.81;100.00
29315;BME280;16320;53.954;9.506;2023-09-19T01:01:55;100167.16;;;16.79;100.00
29315;BME280;16320;53.954;9.506;2023-09-19T01:05:01;100174.41;;;16.77;100.00
29315;BME280;16320;53.954;9.506;2023-09-19T01:08:06;100181.38;;;16.78;100.00
29315;BME280;16320;53.954;9.506;2023-09-19T01:11:31;100185.84;;;16.77;100.00
29315;BME280;16320;53.954;9.506;2023-09-19T01:14:54;100192.25;;;16.75;100.00
29315;BME280;16320;53.954;9.506;2023-09-19T01:22:14;100189.41;;;16.66;100.00
29315;BME280;16320;53.954;9.506;2023-09-19T01:26:18;100196.94;;;16.61;100.00
29315;BME280;16320;53.954;9.506;2023-09-19T01:29:44;100212.53;;;16.55;100.00
29315;BME280;16320;53.954;9.506;2023-09-19T01:32:52;100214.34;;;16.54;100.00
29315;BME280;16320;53.954;9.506;2023-09-19T01:35:56;100224.22;;;16.52;100.00
29315;BME280;16320;53.954;9.506;2023-09-19T01:39:06;100235.09;;;16.49;100.00
29315;BME280;16320;53.954;9.506;2023-09-19T01:46:06;100231.97;;;16.44;100.00
29315;BME280;16320;53.954;9.506;2023-09-19T01:52:36;100256.63;;;16.35;100.00
29315;BME280;16320;53.954;9.506;2023-09-19T01:55:47;100256.16;;;16.29;100.00
29315;BME280;16320;53.954;9.506;2023-09-19T01:59:01;100267.84;;;16.27;100.00
29315;BME280;16320;53.954;9.506;2023-09-19T02:02:09;100270.75;;;16.24;100.00
29315;BME280;16320;53.954;9.506;2023-09-19T02:05:23;100253.28;;;16.21;100.00
29315;BME280;16320;53.954;9.506;2023-09-19T02:08:30;100249.94;;;16.19;100.00
29315;BME280;16320;53.954;9.506;2023-09-19T02:11:38;100256.47;;;16.15;100.00
29315;BME280;16320;53.954;9.506;2023-09-19T02:14:42;100262.03;;;16.12;100.00
29315;BME280;16320;53.954;9.506;2023-09-19T02:17:47;100248.78;;;16.12;100.00
29315;BME280;16320;53.954;9.506;2023-09-19T02:20:53;100257.44;;;16.14;100.00
29315;BME280;16320;53.954;9.506;2023-09-19T02:23:59;100260.91;;;16.15;100.00
29315;BME280;16320;53.954;9.506;2023-09-19T02:27:05;100255.88;;;16.11;100.00
29315;BME280;16320;53.954;9.506;2023-09-19T02:30:10;100261.28;;;16.10;100.00
29315;BME280;16320;53.954;9.506;2023-09-19T02:33:16;100265.88;;;16.08;100.00
29315;BME280;16320;53.954;9.506;2023-09-19T02:36:21;100260.56;;;16.08;100.00
29315;BME280;16320;53.954;9.506;2023-09-19T02:39:26;100258.78;;;16.08;100.00
29315;BME280;16320;53.954;9.506;2023-09-19T02:42:32;100262.41;;;16.07;100.00
29315;BME280;16320;53.954;9.506;2023-09-19T02:45:37;100266.25;;;16.03;100.00
29315;BME280;16320;53.954;9.506;2023-09-19T02:48:41;100265.41;;;16.03;100.00
29315;BME280;16320;53.954;9.506;2023-09-19T02:51:46;100260.50;;;15.98;100.00
29315;BME280;16320;53.954;9.506;2023-09-19T02:54:51;100254.72;;;15.93;100.00
29315;BME280;16320;53.954;9.506;2023-09-19T02:57:56;100249.69;;;15.90;100.00
29315;BME280;16320;53.954;9.506;2023-09-19T03:01:11;100244.75;;;15.85;100.00
29315;BME280;16320;53.954;9.506;2023-09-19T03:04:16;100244.53;;;15.77;100.00
29315;BME280;16320;53.954;9.506;2023-09-19T03:07:24;100258.78;;;15.76;100.00
29315;BME280;16320;53.954;9.506;2023-09-19T03:10:29;100255.00;;;15.67;100.00
29315;BME280;16320;53.954;9.506;2023-09-19T03:13:35;100254.78;;;15.59;100.00
29315;BME280;16320;53.954;9.506;2023-09-19T03:16:42;100260.44;;;15.54;100.00
29315;BME280;16320;53.954;9.506;2023-09-19T03:19:48;100253.84;;;15.49;100.00
29315;BME280;16320;53.954;9.506;2023-09-19T03:22:53;100254.31;;;15.43;100.00
29315;BME280;16320;53.954;9.506;2023-09-19T03:25:58;100253.03;;;15.37;100.00
29315;BME280;16320;53.954;9.506;2023-09-19T03:29:04;100248.47;;;15.28;100.00
29315;BME280;16320;53.954;9.506;2023-09-19T03:32:11;100242.34;;;15.27;100.00
29315;BME280;16320;53.954;9.506;2023-09-19T03:35:17;100242.44;;;15.26;100.00
29315;BME280;16320;53.954;9.506;2023-09-19T03:38:22;100237.41;;;15.23;100.00
29315;BME280;16320;53.954;9.506;2023-09-19T03:41:27;100237.75;;;15.18;100.00
29315;BME280;16320;53.954;9.506;2023-09-19T03:44:31;100238.59;;;15.18;100.00
29315;BME280;16320;53.954;9.506;2023-09-19T03:47:36;100239.69;;;15.16;100.00
29315;BME280;16320;53.954;9.506;2023-09-19T03:50:41;100245.09;;;15.14;100.00
29315;BME280;16320;53.954;9.506;2023-09-19T03:53:48;100254.69;;;15.15;100.00
29315;BME280;16320;53.954;9.506;2023-09-19T03:56:56;100254.00;;;15.13;100.00
29315;BME280;16320;53.954;9.506;2023-09-19T04:00:00;100255.69;;;15.14;100.00
29315;BME280;16320;53.954;9.506;2023-09-19T04:03:04;100258.09;;;15.06;100.00
29315;BME280;16320;53.954;9.506;2023-09-19T04:06:14;100265.16;;;15.06;100.00
29315;BME280;16320;53.954;9.506;2023-09-19T04:09:19;100267.22;;;15.02;100.00
29315;BME280;16320;53.954;9.506;2023-09-19T04:12:24;100271.31;;;14.95;100.00
29315;BME280;16320;53.954;9.506;2023-09-19T04:15:28;100269.84;;;14.91;100.00
29315;BME280;16320;53.954;9.506;2023-09-19T04:18:33;100264.66;;;14.89;100.00
29315;BME280;16320;53.954;9.506;2023-09-19T04:21:41;100267.88;;;14.81;100.00
29315;BME280;16320;53.954;9.506;2023-09-19T04:24:46;100274.38;;;14.77;100.00
29315;BME280;16320;53.954;9.506;2023-09-19T04:27:50;100270.06;;;14.76;100.00
29315;BME280;16320;53.954;9.506;2023-09-19T04:30:54;100269.56;;;14.71;100.00
29315;BME280;16320;53.954;9.506;2023-09-19T04:33:59;100294.56;;;14.67;100.00
29315;BME280;16320;53.954;9.506;2023-09-19T04:37:09;100295.50;;;14.66;100.00
29315;BME280;16320;53.954;9.506;2023-09-19T04:40:16;100286.63;;;14.67;100.00
29315;BME280;16320;53.954;9.506;2023-09-19T04:43:23;100290.47;;;14.63;100.00
29315;BME280;16320;53.954;9.506;2023-09-19T04:46:29;100285.41;;;14.60;100.00
29315;BME280;16320;53.954;9.506;2023-09-19T04:49:34;100278.19;;;14.62;100.00
29315;BME280;16320;53.954;9.506;2023-09-19T04:52:43;100280.53;;;14.54;100.00
29315;BME280;16320;53.954;9.506;2023-09-19T04:55:51;100284.28;;;14.51;100.00
29315;BME280;16320;53.954;9.506;2023-09-19T04:58:57;100293.25;;;14.49;100.00
29315;BME280;16320;53.954;9.506;2023-09-19T05:02:03;100290.97;;;14.44;100.00
29315;BME280;16320;53.954;9.506;2023-09-19T05:05:09;100279.56;;;14.43;100.00
29315;BME280;16320;53.954;9.506;2023-09-19T05:08:21;100281.97;;;14.46;100.00
29315;BME280;16320;53.954;9.506;2023-09-19T05:11:26;100288.19;;;14.45;100.00
29315;BME280;16320;53.954;9.506;2023-09-19T05:14:31;100288.19;;;14.45;100.00
29315;BME280;16320;53.954;9.506;2023-09-19T05:17:36;100285.66;;;14.44;100.00
29315;BME280;16320;53.954;9.506;2023-09-19T05:20:40;100271.63;;;14.43;100.00
29315;BME280;16320;53.954;9.506;2023-09-19T05:23:45;100282.69;;;14.49;100.00
29315;BME280;16320;53.954;9.506;2023-09-19T05:26:49;100282.91;;;14.45;100.00
29315;BME280;16320;53.954;9.506;2023-09-19T05:29:54;100288.44;;;14.42;100.00
29315;BME280;16320;53.954;9.506;2023-09-19T05:33:00;100292.03;;;14.41;100.00
29315;BME280;16320;53.954;9.506;2023-09-19T05:36:05;100304.75;;;14.36;100.00
29315;BME280;16320;53.954;9.506;2023-09-19T05:39:09;100303.28;;;14.32;100.00
29315;BME280;16320;53.954;9.506;2023-09-19T05:42:15;100310.28;;;14.33;100.00
29315;BME280;16320;53.954;9.506;2023-09-19T05:45:19;100315.31;;;14.36;100.00
29315;BME280;16320;53.954;9.506;2023-09-19T05:48:27;100317.72;;;14.39;100.00
29315;BME280;16320;53.954;9.506;2023-09-19T05:51:32;100318.69;;;14.38;100.00
29315;BME280;16320;53.954;9.506;2023-09-19T05:54:36;100322.50;;;14.34;100.00
29315;BME280;16320;53.954;9.506;2023-09-19T05:57:42;100322.28;;;14.37;100.00
29315;BME280;16320;53.954;9.506;2023-09-19T06:00:47;100318.25;;;14.44;100.00
29315;BME280;16320;53.954;9.506;2023-09-19T06:03:53;100316.31;;;14.46;100.00
29315;BME280;16320;53.954;9.506;2023-09-19T06:06:58;100321.50;;;14.48;100.00
29315;BME280;16320;53.954;9.506;2023-09-19T06:10:06;100319.22;;;14.55;100.00
29315;BME280;16320;53.954;9.506;2023-09-19T06:13:12;100336.66;;;14.57;100.00
29315;BME280;16320;53.954;9.506;2023-09-19T06:16:17;100326.44;;;14.53;100.00
29315;BME280;16320;53.954;9.506;2023-09-19T06:19:23;100320.94;;;14.56;100.00
29315;BME280;16320;53.954;9.506;2023-09-19T06:22:29;100324.28;;;14.58;100.00
29315;BME280;16320;53.954;9.506;2023-09-19T06:25:34;100320.81;;;14.57;100.00
29315;BME280;16320;53.954;9.506;2023-09-19T06:28:38;100311.81;;;14.60;100.00
29315;BME280;16320;53.954;9.506;2023-09-19T06:31:43;100319.66;;;14.61;100.00
29315;BME280;16320;53.954;9.506;2023-09-19T06:34:52;100331.16;;;14.60;100.00
29315;BME280;16320;53.954;9.506;2023-09-19T06:38:02;100322.88;;;14.65;100.00
29315;BME280;16320;53.954;9.506;2023-09-19T06:41:07;100326.28;;;14.67;100.00
29315;BME280;16320;53.954;9.506;2023-09-19T06:44:12;100325.06;;;14.71;100.00
29315;BME280;16320;53.954;9.506;2023-09-19T06:47:17;100327.00;;;14.69;100.00
29315;BME280;16320;53.954;9.506;2023-09-19T06:50:22;100331.19;;;14.72;100.00
29315;BME280;16320;53.954;9.506;2023-09-19T06:53:28;100324.13;;;14.72;100.00
29315;BME280;16320;53.954;9.506;2023-09-19T06:56:34;100338.19;;;14.73;100.00
29315;BME280;16320;53.954;9.506;2023-09-19T06:59:39;100351.41;;;14.73;100.00
29315;BME280;16320;53.954;9.506;2023-09-19T07:02:44;100350.44;;;14.74;100.00
29315;BME280;16320;53.954;9.506;2023-09-19T07:05:49;100349.81;;;14.70;100.00
29315;BME280;16320;53.954;9.506;2023-09-19T07:08:53;100359.31;;;14.73;100.00
29315;BME280;16320;53.954;9.506;2023-09-19T07:11:59;100361.03;;;14.74;100.00
29315;BME280;16320;53.954;9.506;2023-09-19T07:15:08;100364.50;;;14.74;100.00
29315;BME280;16320;53.954;9.506;2023-09-19T07:18:16;100364.28;;;14.77;100.00
29315;BME280;16320;53.954;9.506;2023-09-19T07:21:23;100364.16;;;14.79;100.00
29315;BME280;16320;53.954;9.506;2023-09-19T07:24:29;100356.13;;;14.80;100.00
29315;BME280;16320;53.954;9.506;2023-09-19T07:27:33;100361.41;;;14.80;100.00
29315;BME280;16320;53.954;9.506;2023-09-19T07:30:38;100361.19;;;14.83;100.00
29315;BME280;16320;53.954;9.506;2023-09-19T07:33:43;100370.88;;;14.83;100.00
29315;BME280;16320;53.954;9.506;2023-09-19T07:36:48;100372.81;;;14.81;100.00
29315;BME280;16320;53.954;9.506;2023-09-19T07:39:52;100368.34;;;14.81;100.00
29315;BME280;16320;53.954;9.506;2023-09-19T07:42:57;100366.47;;;14.83;100.00
29315;BME280;16320;53.954;9.506;2023-09-19T07:46:07;100376.81;;;14.87;100.00
29315;BME280;16320;53.954;9.506;2023-09-19T07:49:13;100378.47;;;14.88;100.00
29315;BME280;16320;53.954;9.506;2023-09-19T07:52:18;100399.41;;;14.91;100.00
29315;BME280;16320;53.954;9.506;2023-09-19T07:55:23;100390.53;;;14.92;100.00
29315;BME280;16320;53.954;9.506;2023-09-19T07:58:28;100398.94;;;14.97;100.00
29315;BME280;16320;53.954;9.506;2023-09-19T08:01:33;100402.09;;;15.02;100.00
29315;BME280;16320;53.954;9.506;2023-09-19T08:04:37;100406.53;;;15.01;100.00
29315;BME280;16320;53.954;9.506;2023-09-19T08:07:45;100397.75;;;15.01;100.00
29315;BME280;16320;53.954;9.506;2023-09-19T08:10:57;100398.72;;;15.00;100.00
29315;BME280;16320;53.954;9.506;2023-09-19T08:14:01;100397.50;;;15.04;100.00
29315;BME280;16320;53.954;9.506;2023-09-19T08:17:07;100392.09;;;15.06;100.00
29315;BME280;16320;53.954;9.506;2023-09-19T08:20:13;100378.78;;;15.07;100.00
29315;BME280;16320;53.954;9.506;2023-09-19T08:23:21;100381.91;;;15.12;100.00
29315;BME280;16320;53.954;9.506;2023-09-19T08:26:28;100395.66;;;15.17;100.00
29315;BME280;16320;53.954;9.506;2023-09-19T08:29:32;100390.34;;;15.17;100.00
29315;BME280;16320;53.954;9.506;2023-09-19T08:32:37;100399.00;;;15.19;100.00
29315;BME280;16320;53.954;9.506;2023-09-19T08:35:42;100403.31;;;15.20;100.00
29315;BME280;16320;53.954;9.506;2023-09-19T08:38:47;100407.66;;;15.22;100.00
29315;BME280;16320;53.954;9.506;2023-09-19T08:42:10;100405.97;;;15.20;100.00
29315;BME280;16320;53.954;9.506;2023-09-19T08:45:15;100416.53;;;15.20;100.00
29315;BME280;16320;53.954;9.506;2023-09-19T08:48:26;100432.53;;;15.19;100.00
29315;BME280;16320;53.954;9.506;2023-09-19T08:51:45;100428.34;;;15.16;100.00
29315;BME280;16320;53.954;9.506;2023-09-19T08:54:52;100421.84;;;15.20;100.00
29315;BME280;16320;53.954;9.506;2023-09-19T08:58:04;100423.66;;;15.20;100.00
29315;BME280;16320;53.954;9.506;2023-09-19T09:01:11;100428.59;;;15.25;100.00
29315;BME280;16320;53.954;9.506;2023-09-19T09:04:18;100425.94;;;15.25;100.00
29315;BME280;16320;53.954;9.506;2023-09-19T09:07:24;100423.69;;;15.31;100.00
29315;BME280;16320;53.954;9.506;2023-09-19T09:10:29;100424.28;;;15.35;100.00
29315;BME280;16320;53.954;9.506;2023-09-19T09:13:36;100417.31;;;15.34;100.00
29315;BME280;16320;53.954;9.506;2023-09-19T09:16:43;100399.28;;;15.39;100.00
29315;BME280;16320;53.954;9.506;2023-09-19T09:19:48;100418.06;;;15.47;100.00
29315;BME280;16320;53.954;9.506;2023-09-19T09:22:54;100418.19;;;15.57;100.00
29315;BME280;16320;53.954;9.506;2023-09-19T09:25:59;100419.63;;;15.61;100.00
29315;BME280;16320;53.954;9.506;2023-09-19T09:29:07;100407.47;;;15.70;100.00
29315;BME280;16320;53.954;9.506;2023-09-19T09:32:29;100401.22;;;15.71;100.00
29315;BME280;16320;53.954;9.506;2023-09-19T09:39:00;100407.75;;;15.89;100.00
29315;BME280;16320;53.954;9.506;2023-09-19T09:42:34;100403.75;;;16.06;100.00
29315;BME280;16320;53.954;9.506;2023-09-19T09:45:39;100400.25;;;16.17;100.00
29315;BME280;16320;53.954;9.506;2023-09-19T09:49:04;100414.78;;;16.23;100.00
29315;BME280;16320;53.954;9.506;2023-09-19T09:52:29;100389.31;;;16.10;100.00
29315;BME280;16320;53.954;9.506;2023-09-19T09:56:08;100398.31;;;16.08;100.00
29315;BME280;16320;53.954;9.506;2023-09-19T09:59:18;100393.25;;;16.16;100.00
29315;BME280;16320;53.954;9.506;2023-09-19T10:02:29;100379.97;;;16.27;100.00
29315;BME280;16320;53.954;9.506;2023-09-19T10:05:44;100379.63;;;16.21;100.00
29315;BME280;16320;53.954;9.506;2023-09-19T10:09:05;100373.50;;;16.20;100.00
29315;BME280;16320;53.954;9.506;2023-09-19T10:12:16;100374.69;;;16.27;100.00
29315;BME280;16320;53.954;9.506;2023-09-19T10:15:24;100361.44;;;16.27;100.00
29315;BME280;16320;53.954;9.506;2023-09-19T10:18:32;100360.34;;;16.30;100.00
29315;BME280;16320;53.954;9.506;2023-09-19T10:21:41;100360.09;;;16.33;100.00
29315;BME280;16320;53.954;9.506;2023-09-19T10:24:49;100356.34;;;16.36;100.00
29315;BME280;16320;53.954;9.506;2023-09-19T10:28:12;100361.41;;;16.39;100.00
29315;BME280;16320;53.954;9.506;2023-09-19T10:31:19;100337.78;;;16.36;100.00
29315;BME280;16320;53.954;9.506;2023-09-19T10:34:25;100365.50;;;16.43;100.00
29315;BME280;16320;53.954;9.506;2023-09-19T10:37:32;100365.69;;;16.51;100.00
29315;BME280;16320;53.954;9.506;2023-09-19T10:40:39;100350.97;;;16.58;100.00
29315;BME280;16320;53.954;9.506;2023-09-19T10:43:51;100352.97;;;16.66;100.00
29315;BME280;16320;53.954;9.506;2023-09-19T10:46:59;100342.25;;;16.68;100.00
29315;BME280;16320;53.954;9.506;2023-09-19T10:50:05;100346.19;;;16.73;100.00
29315;BME280;16320;53.954;9.506;2023-09-19T10:53:12;100346.25;;;16.83;100.00
29315;BME280;16320;53.954;9.506;2023-09-19T10:56:43;100325.81;;;16.85;100.00
29315;BME280;16320;53.954;9.506;2023-09-19T11:00:07;100331.94;;;16.86;100.00
29315;BME280;16320;53.954;9.506;2023-09-19T11:03:32;100352.31;;;16.85;100.00
29315;BME280;16320;53.954;9.506;2023-09-19T11:06:39;100335.66;;;16.83;100.00
29315;BME280;16320;53.954;9.506;2023-09-19T11:09:55;100359.16;;;16.88;100.00
29315;BME280;16320;53.954;9.506;2023-09-19T11:13:35;100371.09;;;16.93;100.00
29315;BME280;16320;53.954;9.506;2023-09-19T11:20:21;100367.50;;;17.04;100.00
29315;BME280;16320;53.954;9.506;2023-09-19T11:23:39;100376.84;;;16.98;100.00
29315;BME280;16320;53.954;9.506;2023-09-19T11:26:45;100387.31;;;17.00;100.00
29315;BME280;16320;53.954;9.506;2023-09-19T11:30:27;100371.66;;;16.97;100.00
29315;BME280;16320;53.954;9.506;2023-09-19T11:33:35;100382.41;;;16.95;100.00
29315;BME280;16320;53.954;9.506;2023-09-19T11:36:45;100391.44;;;16.93;100.00
29315;BME280;16320;53.954;9.506;2023-09-19T11:40:10;100374.31;;;16.97;100.00
29315;BME280;16320;53.954;9.506;2023-09-19T11:43:32;100370.56;;;16.99;100.00
29315;BME280;16320;53.954;9.506;2023-09-19T11:49:56;100338.78;;;17.09;100.00
29315;BME280;16320;53.954;9.506;2023-09-19T11:53:03;100330.97;;;17.08;100.00
29315;BME280;16320;53.954;9.506;2023-09-19T11:56:11;100326.75;;;17.05;100.00
29315;BME280;16320;53.954;9.506;2023-09-19T11:59:23;100315.75;;;17.10;100.00
29315;BME280;16320;53.954;9.506;2023-09-19T12:02:42;100326.81;;;17.15;100.00
29315;BME280;16320;53.954;9.506;2023-09-19T12:05:52;100323.72;;;17.10;100.00
29315;BME280;16320;53.954;9.506;2023-09-19T12:08:57;100328.56;;;17.05;100.00
29315;BME280;16320;53.954;9.506;2023-09-19T12:12:04;100322.00;;;17.09;100.00
29315;BME280;16320;53.954;9.506;2023-09-19T12:15:09;100324.28;;;17.13;100.00
29315;BME280;16320;53.954;9.506;2023-09-19T12:18:30;100333.06;;;17.14;100.00
29315;BME280;16320;53.954;9.506;2023-09-19T12:21:35;100326.16;;;17.23;100.00
29315;BME280;16320;53.954;9.506;2023-09-19T12:24:41;100319.06;;;17.33;100.00
29315;BME280;16320;53.954;9.506;2023-09-19T12:27:49;100314.91;;;17.40;100.00
29315;BME280;16320;53.954;9.506;2023-09-19T12:31:07;100317.63;;;17.50;100.00
29315;BME280;16320;53.954;9.506;2023-09-19T12:34:20;100309.06;;;17.46;100.00
29315;BME280;16320;53.954;9.506;2023-09-19T12:37:26;100304.88;;;17.44;100.00
29315;BME280;16320;53.954;9.506;2023-09-19T12:40:34;100306.53;;;17.45;100.00
29315;BME280;16320;53.954;9.506;2023-09-19T12:43:42;100309.66;;;17.50;100.00
29315;BME280;16320;53.954;9.506;2023-09-19T12:46:47;100290.97;;;17.61;100.00
29315;BME280;16320;53.954;9.506;2023-09-19T12:53:27;100278.91;;;17.57;100.00
29315;BME280;16320;53.954;9.506;2023-09-19T12:56:42;100283.97;;;17.60;100.00
29315;BME280;16320;53.954;9.506;2023-09-19T12:59:52;100278.94;;;17.67;100.00
29315;BME280;16320;53.954;9.506;2023-09-19T13:03:24;100264.72;;;17.78;100.00
29315;BME280;16320;53.954;9.506;2023-09-19T13:06:36;100274.50;;;17.87;100.00
29315;BME280;16320;53.954;9.506;2023-09-19T13:10:03;100255.13;;;17.96;100.00
29315;BME280;16320;53.954;9.506;2023-09-19T13:13:24;100247.56;;;17.91;100.00
29315;BME280;16320;53.954;9.506;2023-09-19T13:16:33;100241.63;;;17.78;100.00
29315;BME280;16320;53.954;9.506;2023-09-19T13:19:51;100250.72;;;17.75;100.00
29315;BME280;16320;53.954;9.506;2023-09-19T13:23:02;100242.34;;;17.80;100.00
29315;BME280;16320;53.954;9.506;2023-09-19T13:26:15;100240.09;;;17.85;100.00
29315;BME280;16320;53.954;9.506;2023-09-19T13:29:20;100213.28;;;17.88;100.00
29315;BME280;16320;53.954;9.506;2023-09-19T13:32:28;100207.41;;;17.95;100.00
29315;BME280;16320;53.954;9.506;2023-09-19T13:35:33;100197.06;;;18.01;100.00
29315;BME280;16320;53.954;9.506;2023-09-19T13:38:42;100206.72;;;18.02;100.00
29315;BME280;16320;53.954;9.506;2023-09-19T13:41:51;100184.47;;;18.03;100.00
29315;BME280;16320;53.954;9.506;2023-09-19T13:44:56;100190.09;;;18.00;100.00
29315;BME280;16320;53.954;9.506;2023-09-19T13:48:01;100195.41;;;18.00;100.00
29315;BME280;16320;53.954;9.506;2023-09-19T13:51:05;100190.38;;;17.97;100.00
29315;BME280;16320;53.954;9.506;2023-09-19T13:54:10;100190.66;;;17.94;100.00
29315;BME280;16320;53.954;9.506;2023-09-19T13:57:16;100177.38;;;17.94;100.00
29315;BME280;16320;53.954;9.506;2023-09-19T14:00:24;100173.03;;;17.93;100.00
29315;BME280;16320;53.954;9.506;2023-09-19T14:03:29;100183.66;;;17.93;100.00
29315;BME280;16320;53.954;9.506;2023-09-19T14:06:33;100178.84;;;17.87;100.00
29315;BME280;16320;53.954;9.506;2023-09-19T14:09:38;100169.97;;;17.88;100.00
29315;BME280;16320;53.954;9.506;2023-09-19T14:12:45;100168.22;;;17.87;100.00
29315;BME280;16320;53.954;9.506;2023-09-19T14:15:50;100185.31;;;17.84;100.00
29315;BME280;16320;53.954;9.506;2023-09-19T14:18:55;100188.38;;;17.80;100.00
29315;BME280;16320;53.954;9.506;2023-09-19T14:22:00;100182.78;;;17.73;100.00
29315;BME280;16320;53.954;9.506;2023-09-19T14:25:19;100203.47;;;17.69;100.00
29315;BME280;16320;53.954;9.506;2023-09-19T14:28:26;100207.22;;;17.57;100.00
29315;BME280;16320;53.954;9.506;2023-09-19T14:31:31;100224.69;;;17.50;100.00
29315;BME280;16320;53.954;9.506;2023-09-19T14:34:36;100215.16;;;17.47;100.00
29315;BME280;16320;53.954;9.506;2023-09-19T14:37:46;100209.72;;;17.49;100.00
29315;BME280;16320;53.954;9.506;2023-09-19T14:41:22;100206.25;;;17.48;100.00
29315;BME280;16320;53.954;9.506;2023-09-19T14:44:29;100206.25;;;17.48;100.00
29315;BME280;16320;53.954;9.506;2023-09-19T14:47:35;100196.88;;;17.54;100.00
29315;BME280;16320;53.954;9.506;2023-09-19T14:50:40;100192.72;;;17.61;100.00
29315;BME280;16320;53.954;9.506;2023-09-19T14:53:45;100193.41;;;17.63;100.00
29315;BME280;16320;53.954;9.506;2023-09-19T14:56:54;100210.97;;;17.54;100.00
29315;BME280;16320;53.954;9.506;2023-09-19T15:00:10;100249.22;;;17.32;100.00
29315;BME280;16320;53.954;9.506;2023-09-19T15:03:16;100263.13;;;17.15;100.00
29315;BME280;16320;53.954;9.506;2023-09-19T15:06:22;100277.91;;;17.08;100.00
29315;BME280;16320;53.954;9.506;2023-09-19T15:09:28;100288.03;;;17.02;100.00
29315;BME280;16320;53.954;9.506;2023-09-19T15:12:33;100300.16;;;16.95;100.00
29315;BME280;16320;53.954;9.506;2023-09-19T15:15:37;100299.72;;;16.90;100.00
29315;BME280;16320;53.954;9.506;2023-09-19T15:18:45;100288.13;;;16.91;100.00
29315;BME280;16320;53.954;9.506;2023-09-19T15:21:52;100285.94;;;16.96;100.00
29315;BME280;16320;53.954;9.506;2023-09-19T15:24:57;100260.69;;;17.02;100.00
29315;BME280;16320;53.954;9.506;2023-09-19T15:28:02;100241.19;;;17.13;100.00
29315;BME280;16320;53.954;9.506;2023-09-19T15:31:12;100232.69;;;17.19;100.00
29315;BME280;16320;53.954;9.506;2023-09-19T15:34:17;100224.44;;;17.22;100.00
29315;BME280;16320;53.954;9.506;2023-09-19T15:37:22;100214.56;;;17.24;100.00
29315;BME280;16320;53.954;9.506;2023-09-19T15:40:27;100207.03;;;17.29;100.00
29315;BME280;16320;53.954;9.506;2023-09-19T15:43:32;100199.63;;;17.33;100.00
29315;BME280;16320;53.954;9.506;2023-09-19T15:46:38;100182.31;;;17.38;100.00
29315;BME280;16320;53.954;9.506;2023-09-19T15:49:44;100189.28;;;17.39;100.00
29315;BME280;16320;53.954;9.506;2023-09-19T15:52:53;100193.09;;;17.37;100.00
29315;BME280;16320;53.954;9.506;2023-09-19T15:56:05;100199.22;;;17.37;100.00
29315;BME280;16320;53.954;9.506;2023-09-19T15:59:22;100194.59;;;17.39;100.00
29315;BME280;16320;53.954;9.506;2023-09-19T16:02:29;100177.72;;;17.41;100.00
29315;BME280;16320;53.954;9.506;2023-09-19T16:05:36;100178.84;;;17.48;100.00
29315;BME280;16320;53.954;9.506;2023-09-19T16:08:43;100175.91;;;17.51;100.00
29315;BME280;16320;53.954;9.506;2023-09-19T16:11:48;100160.41;;;17.56;100.00
29315;BME280;16320;53.954;9.506;2023-09-19T16:14:53;100161.53;;;17.63;100.00
29315;BME280;16320;53.954;9.506;2023-09-19T16:17:57;100150.91;;;17.63;100.00
29315;BME280;16320;53.954;9.506;2023-09-19T16:21:08;100161.53;;;17.63;100.00
29315;BME280;16320;53.954;9.506;2023-09-19T16:24:13;100157.88;;;17.64;100.00
29315;BME280;16320;53.954;9.506;2023-09-19T16:27:17;100168.50;;;17.64;100.00
29315;BME280;16320;53.954;9.506;2023-09-19T16:30:25;100164.88;;;17.65;100.00
29315;BME280;16320;53.954;9.506;2023-09-19T16:33:33;100187.97;;;17.65;100.00
29315;BME280;16320;53.954;9.506;2023-09-19T16:36:39;100185.44;;;17.63;100.00
29315;BME280;16320;53.954;9.506;2023-09-19T16:39:47;100169.50;;;17.63;100.00